sensor_id;sensor_type;location;lat;lon;timestamp;P1;durP1;ratioP1;P2;durP2;ratioP2
16577;SDS011;8401;52.528;13.340;2023-07-31T00:02:00;2.93;;;1.70;;
16577;SDS011;8401;52.528;13.340;2023-07-31T00:04:25;3.13;;;1.90;;
16577;SDS011;8401;52.528;13.340;2023-07-31T00:06:51;3.47;;;1.67;;
16577;SDS011;8401;52.528;13.340;2023-07-31T00:09:16;4.03;;;1.93;;
16577;SDS011;8401;52.528;13.340;2023-07-31T00:11:42;3.33;;;1.73;;
16577;SDS011;8401;52.528;13.340;2023-07-31T00:14:07;3.43;;;1.83;;
16577;SDS011;8401;52.528;13.340;2023-07-31T00:16:33;4.03;;;2.67;;
16577;SDS011;8401;52.528;13.340;2023-07-31T00:18:59;3.27;;;2.30;;
16577;SDS011;8401;52.528;13.340;2023-07-31T00:21:24;2.87;;;1.80;;
16577;SDS011;8401;52.528;13.340;2023-07-31T00:23:50;3.73;;;2.27;;
16577;SDS011;8401;52.528;13.340;2023-07-31T00:26:16;3.73;;;2.10;;
16577;SDS011;8401;52.528;13.340;2023-07-31T00:28:41;4.07;;;1.50;;
16577;SDS011;8401;52.528;13.340;2023-07-31T00:31:07;3.00;;;1.50;;
16577;SDS011;8401;52.528;13.340;2023-07-31T00:33:34;3.17;;;1.90;;
16577;SDS011;8401;52.528;13.340;2023-07-31T00:36:01;4.57;;;1.83;;
16577;SDS011;8401;52.528;13.340;2023-07-31T00:38:27;3.93;;;1.97;;
16577;SDS011;8401;52.528;13.340;2023-07-31T00:40:53;3.90;;;1.83;;
16577;SDS011;8401;52.528;13.340;2023-07-31T00:43:18;5.10;;;1.77;;
16577;SDS011;8401;52.528;13.340;2023-07-31T00:45:44;3.27;;;1.60;;
16577;SDS011;8401;52.528;13.340;2023-07-31T00:48:09;4.10;;;1.97;;
16577;SDS011;8401;52.528;13.340;2023-07-31T00:50:36;4.63;;;2.07;;
16577;SDS011;8401;52.528;13.340;2023-07-31T00:53:02;2.67;;;1.77;;
16577;SDS011;8401;52.528;13.340;2023-07-31T00:55:28;5.00;;;2.40;;
16577;SDS011;8401;52.528;13.340;2023-07-31T00:57:54;3.63;;;2.20;;
16577;SDS011;8401;52.528;13.340;2023-07-31T01:00:21;3.90;;;1.70;;
16577;SDS011;8401;52.528;13.340;2023-07-31T01:02:47;2.17;;;1.90;;
16577;SDS011;8401;52.528;13.340;2023-07-31T01:05:14;4.33;;;1.87;;
16577;SDS011;8401;52.528;13.340;2023-07-31T01:10:20;3.27;;;2.30;;
16577;SDS011;8401;52.528;13.340;2023-07-31T01:12:48;3.50;;;2.13;;
16577;SDS011;8401;52.528;13.340;2023-07-31T01:15:17;2.80;;;1.70;;
16577;SDS011;8401;52.528;13.340;2023-07-31T01:17:43;5.43;;;2.37;;
16577;SDS011;8401;52.528;13.340;2023-07-31T01:20:22;3.70;;;1.97;;
16577;SDS011;8401;52.528;13.340;2023-07-31T01:22:54;4.27;;;2.10;;
16577;SDS011;8401;52.528;13.340;2023-07-31T01:28:18;4.27;;;2.07;;
16577;SDS011;8401;52.528;13.340;2023-07-31T01:30:48;3.47;;;2.20;;
16577;SDS011;8401;52.528;13.340;2023-07-31T01:33:14;2.33;;;1.90;;
16577;SDS011;8401;52.528;13.340;2023-07-31T01:35:42;2.37;;;1.93;;
16577;SDS011;8401;52.528;13.340;2023-07-31T01:38:09;2.57;;;1.73;;
16577;SDS011;8401;52.528;13.340;2023-07-31T01:40:35;4.30;;;2.33;;
16577;SDS011;8401;52.528;13.340;2023-07-31T01:43:01;2.93;;;2.00;;
16577;SDS011;8401;52.528;13.340;2023-07-31T01:45:26;2.20;;;2.00;;
16577;SDS011;8401;52.528;13.340;2023-07-31T01:47:52;2.43;;;2.10;;
16577;SDS011;8401;52.528;13.340;2023-07-31T01:50:17;3.43;;;2.07;;
16577;SDS011;8401;52.528;13.340;2023-07-31T01:52:43;3.07;;;2.30;;
16577;SDS011;8401;52.528;13.340;2023-07-31T01:55:09;4.63;;;2.30;;
16577;SDS011;8401;52.528;13.340;2023-07-31T01:57:36;4.33;;;2.17;;
16577;SDS011;8401;52.528;13.340;2023-07-31T02:00:02;4.10;;;2.50;;
16577;SDS011;8401;52.528;13.340;2023-07-31T02:02:28;4.57;;;2.20;;
16577;SDS011;8401;52.528;13.340;2023-07-31T02:04:54;3.40;;;2.00;;
16577;SDS011;8401;52.528;13.340;2023-07-31T02:07:20;3.03;;;2.37;;
16577;SDS011;8401;52.528;13.340;2023-07-31T02:09:45;5.03;;;2.53;;
16577;SDS011;8401;52.528;13.340;2023-07-31T02:12:13;4.60;;;2.17;;
16577;SDS011;8401;52.528;13.340;2023-07-31T02:14:39;5.37;;;2.53;;
16577;SDS011;8401;52.528;13.340;2023-07-31T02:17:05;5.13;;;2.50;;
16577;SDS011;8401;52.528;13.340;2023-07-31T02:19:31;3.17;;;2.20;;
16577;SDS011;8401;52.528;13.340;2023-07-31T02:21:57;3.07;;;2.00;;
16577;SDS011;8401;52.528;13.340;2023-07-31T02:24:23;4.23;;;2.33;;
16577;SDS011;8401;52.528;13.340;2023-07-31T02:26:49;4.67;;;2.70;;
16577;SDS011;8401;52.528;13.340;2023-07-31T02:29:15;4.43;;;2.20;;
16577;SDS011;8401;52.528;13.340;2023-07-31T02:31:40;4.87;;;2.50;;
16577;SDS011;8401;52.528;13.340;2023-07-31T02:34:06;5.33;;;2.60;;
16577;SDS011;8401;52.528;13.340;2023-07-31T02:36:31;3.10;;;2.53;;
16577;SDS011;8401;52.528;13.340;2023-07-31T02:38:57;3.53;;;2.20;;
16577;SDS011;8401;52.528;13.340;2023-07-31T02:41:22;3.63;;;2.40;;
16577;SDS011;8401;52.528;13.340;2023-07-31T02:43:48;4.30;;;2.47;;
16577;SDS011;8401;52.528;13.340;2023-07-31T02:46:14;6.23;;;2.43;;
16577;SDS011;8401;52.528;13.340;2023-07-31T02:48:39;3.77;;;2.23;;
16577;SDS011;8401;52.528;13.340;2023-07-31T02:51:05;2.37;;;2.17;;
16577;SDS011;8401;52.528;13.340;2023-07-31T02:53:30;4.03;;;2.20;;
16577;SDS011;8401;52.528;13.340;2023-07-31T02:55:56;3.77;;;2.40;;
16577;SDS011;8401;52.528;13.340;2023-07-31T02:58:22;4.37;;;2.17;;
16577;SDS011;8401;52.528;13.340;2023-07-31T03:00:47;4.37;;;2.63;;
16577;SDS011;8401;52.528;13.340;2023-07-31T03:03:13;7.70;;;2.83;;
16577;SDS011;8401;52.528;13.340;2023-07-31T03:05:38;3.93;;;2.30;;
16577;SDS011;8401;52.528;13.340;2023-07-31T03:08:04;4.77;;;2.50;;
16577;SDS011;8401;52.528;13.340;2023-07-31T03:10:30;5.10;;;2.60;;
16577;SDS011;8401;52.528;13.340;2023-07-31T03:12:55;5.70;;;2.80;;
16577;SDS011;8401;52.528;13.340;2023-07-31T03:15:21;6.10;;;2.90;;
16577;SDS011;8401;52.528;13.340;2023-07-31T03:17:46;4.23;;;3.03;;
16577;SDS011;8401;52.528;13.340;2023-07-31T03:20:12;5.63;;;3.43;;
16577;SDS011;8401;52.528;13.340;2023-07-31T03:22:37;4.83;;;3.17;;
16577;SDS011;8401;52.528;13.340;2023-07-31T03:25:03;5.30;;;3.03;;
16577;SDS011;8401;52.528;13.340;2023-07-31T03:27:29;7.47;;;3.50;;
16577;SDS011;8401;52.528;13.340;2023-07-31T03:29:55;5.93;;;3.40;;
16577;SDS011;8401;52.528;13.340;2023-07-31T03:32:20;4.73;;;2.90;;
16577;SDS011;8401;52.528;13.340;2023-07-31T03:34:46;5.30;;;3.07;;
16577;SDS011;8401;52.528;13.340;2023-07-31T03:37:12;3.67;;;2.90;;
16577;SDS011;8401;52.528;13.340;2023-07-31T03:39:37;5.27;;;3.20;;
16577;SDS011;8401;52.528;13.340;2023-07-31T03:42:03;3.83;;;3.23;;
16577;SDS011;8401;52.528;13.340;2023-07-31T03:44:29;3.80;;;3.00;;
16577;SDS011;8401;52.528;13.340;2023-07-31T03:46:54;4.37;;;3.27;;
16577;SDS011;8401;52.528;13.340;2023-07-31T03:49:20;6.80;;;3.50;;
16577;SDS011;8401;52.528;13.340;2023-07-31T03:51:46;4.40;;;3.20;;
16577;SDS011;8401;52.528;13.340;2023-07-31T03:54:11;6.47;;;3.37;;
16577;SDS011;8401;52.528;13.340;2023-07-31T03:56:38;7.70;;;3.50;;
16577;SDS011;8401;52.528;13.340;2023-07-31T03:59:04;4.40;;;3.53;;
16577;SDS011;8401;52.528;13.340;2023-07-31T04:01:29;5.30;;;3.57;;
16577;SDS011;8401;52.528;13.340;2023-07-31T04:03:55;4.23;;;3.50;;
16577;SDS011;8401;52.528;13.340;2023-07-31T04:06:20;6.40;;;2.80;;
16577;SDS011;8401;52.528;13.340;2023-07-31T04:08:46;5.13;;;3.50;;
16577;SDS011;8401;52.528;13.340;2023-07-31T04:11:12;8.17;;;3.40;;
16577;SDS011;8401;52.528;13.340;2023-07-31T04:13:38;5.27;;;3.50;;
16577;SDS011;8401;52.528;13.340;2023-07-31T04:16:03;5.03;;;3.30;;
16577;SDS011;8401;52.528;13.340;2023-07-31T04:18:29;5.90;;;3.23;;
16577;SDS011;8401;52.528;13.340;2023-07-31T04:20:56;5.93;;;3.40;;
16577;SDS011;8401;52.528;13.340;2023-07-31T04:23:23;5.60;;;3.37;;
16577;SDS011;8401;52.528;13.340;2023-07-31T04:25:50;5.83;;;3.80;;
16577;SDS011;8401;52.528;13.340;2023-07-31T04:28:16;8.33;;;3.30;;
16577;SDS011;8401;52.528;13.340;2023-07-31T04:30:42;5.23;;;3.20;;
16577;SDS011;8401;52.528;13.340;2023-07-31T04:33:07;6.20;;;3.50;;
16577;SDS011;8401;52.528;13.340;2023-07-31T04:35:33;4.77;;;3.10;;
16577;SDS011;8401;52.528;13.340;2023-07-31T04:37:59;5.23;;;3.33;;
16577;SDS011;8401;52.528;13.340;2023-07-31T04:40:24;6.37;;;3.67;;
16577;SDS011;8401;52.528;13.340;2023-07-31T04:42:50;6.87;;;3.43;;
16577;SDS011;8401;52.528;13.340;2023-07-31T04:45:16;6.03;;;3.60;;
16577;SDS011;8401;52.528;13.340;2023-07-31T04:47:41;6.73;;;3.30;;
16577;SDS011;8401;52.528;13.340;2023-07-31T04:50:07;6.17;;;3.03;;
16577;SDS011;8401;52.528;13.340;2023-07-31T04:52:33;5.00;;;3.30;;
16577;SDS011;8401;52.528;13.340;2023-07-31T04:54:58;3.87;;;2.80;;
16577;SDS011;8401;52.528;13.340;2023-07-31T04:57:24;3.50;;;2.90;;
16577;SDS011;8401;52.528;13.340;2023-07-31T04:59:50;5.97;;;3.17;;
16577;SDS011;8401;52.528;13.340;2023-07-31T05:02:15;5.10;;;3.30;;
16577;SDS011;8401;52.528;13.340;2023-07-31T05:04:41;4.30;;;3.23;;
16577;SDS011;8401;52.528;13.340;2023-07-31T05:07:06;4.07;;;3.00;;
16577;SDS011;8401;52.528;13.340;2023-07-31T05:09:32;5.60;;;2.83;;
16577;SDS011;8401;52.528;13.340;2023-07-31T05:11:58;4.77;;;3.10;;
16577;SDS011;8401;52.528;13.340;2023-07-31T05:14:23;6.90;;;3.67;;
16577;SDS011;8401;52.528;13.340;2023-07-31T05:16:49;6.83;;;3.30;;
16577;SDS011;8401;52.528;13.340;2023-07-31T05:19:15;6.23;;;3.20;;
16577;SDS011;8401;52.528;13.340;2023-07-31T05:21:40;3.53;;;2.60;;
16577;SDS011;8401;52.528;13.340;2023-07-31T05:24:06;3.87;;;3.23;;
16577;SDS011;8401;52.528;13.340;2023-07-31T05:26:31;8.33;;;3.83;;
16577;SDS011;8401;52.528;13.340;2023-07-31T05:28:57;5.40;;;3.40;;
16577;SDS011;8401;52.528;13.340;2023-07-31T05:31:23;7.03;;;3.27;;
16577;SDS011;8401;52.528;13.340;2023-07-31T05:33:49;5.60;;;3.40;;
16577;SDS011;8401;52.528;13.340;2023-07-31T05:36:15;4.20;;;3.10;;
16577;SDS011;8401;52.528;13.340;2023-07-31T05:38:41;5.60;;;3.10;;
16577;SDS011;8401;52.528;13.340;2023-07-31T05:41:09;4.83;;;3.17;;
16577;SDS011;8401;52.528;13.340;2023-07-31T05:43:35;5.47;;;3.27;;
16577;SDS011;8401;52.528;13.340;2023-07-31T05:46:01;3.77;;;2.80;;
16577;SDS011;8401;52.528;13.340;2023-07-31T05:48:27;5.17;;;3.50;;
16577;SDS011;8401;52.528;13.340;2023-07-31T05:50:52;4.00;;;2.83;;
16577;SDS011;8401;52.528;13.340;2023-07-31T05:53:18;4.87;;;3.43;;
16577;SDS011;8401;52.528;13.340;2023-07-31T05:55:43;5.70;;;3.00;;
16577;SDS011;8401;52.528;13.340;2023-07-31T05:58:09;4.20;;;2.80;;
16577;SDS011;8401;52.528;13.340;2023-07-31T06:00:35;4.17;;;2.50;;
16577;SDS011;8401;52.528;13.340;2023-07-31T06:03:01;6.77;;;2.57;;
16577;SDS011;8401;52.528;13.340;2023-07-31T06:05:27;5.00;;;2.80;;
16577;SDS011;8401;52.528;13.340;2023-07-31T06:07:54;4.80;;;2.70;;
16577;SDS011;8401;52.528;13.340;2023-07-31T06:10:19;6.47;;;2.67;;
16577;SDS011;8401;52.528;13.340;2023-07-31T06:12:45;5.33;;;3.07;;
16577;SDS011;8401;52.528;13.340;2023-07-31T06:15:10;6.60;;;2.73;;
16577;SDS011;8401;52.528;13.340;2023-07-31T06:17:36;5.53;;;2.80;;
16577;SDS011;8401;52.528;13.340;2023-07-31T06:20:02;7.43;;;2.83;;
16577;SDS011;8401;52.528;13.340;2023-07-31T06:22:31;5.83;;;2.70;;
16577;SDS011;8401;52.528;13.340;2023-07-31T06:24:57;5.77;;;3.03;;
16577;SDS011;8401;52.528;13.340;2023-07-31T06:27:23;3.37;;;2.37;;
16577;SDS011;8401;52.528;13.340;2023-07-31T06:29:48;5.50;;;2.53;;
16577;SDS011;8401;52.528;13.340;2023-07-31T06:32:14;5.43;;;2.70;;
16577;SDS011;8401;52.528;13.340;2023-07-31T06:34:39;4.63;;;3.33;;
16577;SDS011;8401;52.528;13.340;2023-07-31T06:37:05;6.20;;;2.97;;
16577;SDS011;8401;52.528;13.340;2023-07-31T06:39:31;3.97;;;2.60;;
16577;SDS011;8401;52.528;13.340;2023-07-31T06:41:56;4.70;;;2.90;;
16577;SDS011;8401;52.528;13.340;2023-07-31T06:44:22;5.33;;;2.60;;
16577;SDS011;8401;52.528;13.340;2023-07-31T06:46:48;4.40;;;2.90;;
16577;SDS011;8401;52.528;13.340;2023-07-31T06:49:13;5.23;;;2.70;;
16577;SDS011;8401;52.528;13.340;2023-07-31T06:51:42;4.17;;;2.90;;
16577;SDS011;8401;52.528;13.340;2023-07-31T06:54:09;5.60;;;2.50;;
16577;SDS011;8401;52.528;13.340;2023-07-31T06:56:34;5.23;;;2.80;;
16577;SDS011;8401;52.528;13.340;2023-07-31T06:59:00;4.43;;;2.47;;
16577;SDS011;8401;52.528;13.340;2023-07-31T07:01:25;6.33;;;3.00;;
16577;SDS011;8401;52.528;13.340;2023-07-31T07:03:52;5.43;;;2.97;;
16577;SDS011;8401;52.528;13.340;2023-07-31T07:06:18;6.73;;;2.43;;
16577;SDS011;8401;52.528;13.340;2023-07-31T07:08:44;4.17;;;2.50;;
16577;SDS011;8401;52.528;13.340;2023-07-31T07:11:09;5.57;;;2.20;;
16577;SDS011;8401;52.528;13.340;2023-07-31T07:13:35;5.97;;;2.47;;
16577;SDS011;8401;52.528;13.340;2023-07-31T07:16:01;4.83;;;2.57;;
16577;SDS011;8401;52.528;13.340;2023-07-31T07:18:27;5.13;;;2.70;;
16577;SDS011;8401;52.528;13.340;2023-07-31T07:20:53;2.83;;;1.83;;
16577;SDS011;8401;52.528;13.340;2023-07-31T07:23:19;3.43;;;2.50;;
16577;SDS011;8401;52.528;13.340;2023-07-31T07:25:46;5.43;;;2.10;;
16577;SDS011;8401;52.528;13.340;2023-07-31T07:28:12;4.43;;;2.30;;
16577;SDS011;8401;52.528;13.340;2023-07-31T07:30:39;4.77;;;2.53;;
16577;SDS011;8401;52.528;13.340;2023-07-31T07:33:05;3.90;;;2.53;;
16577;SDS011;8401;52.528;13.340;2023-07-31T07:35:34;6.53;;;2.60;;
16577;SDS011;8401;52.528;13.340;2023-07-31T07:38:01;3.77;;;2.20;;
16577;SDS011;8401;52.528;13.340;2023-07-31T07:40:27;7.50;;;2.97;;
16577;SDS011;8401;52.528;13.340;2023-07-31T07:42:52;3.90;;;2.43;;
16577;SDS011;8401;52.528;13.340;2023-07-31T07:45:18;6.23;;;2.17;;
16577;SDS011;8401;52.528;13.340;2023-07-31T07:47:44;4.43;;;2.60;;
16577;SDS011;8401;52.528;13.340;2023-07-31T07:50:09;3.27;;;2.87;;
16577;SDS011;8401;52.528;13.340;2023-07-31T07:52:35;4.83;;;3.00;;
16577;SDS011;8401;52.528;13.340;2023-07-31T07:55:01;5.60;;;3.73;;
16577;SDS011;8401;52.528;13.340;2023-07-31T07:57:28;6.37;;;3.17;;
16577;SDS011;8401;52.528;13.340;2023-07-31T07:59:53;5.97;;;3.23;;
16577;SDS011;8401;52.528;13.340;2023-07-31T08:02:19;4.93;;;2.57;;
16577;SDS011;8401;52.528;13.340;2023-07-31T08:04:44;5.57;;;3.10;;
16577;SDS011;8401;52.528;13.340;2023-07-31T08:07:10;4.93;;;2.90;;
16577;SDS011;8401;52.528;13.340;2023-07-31T08:09:37;6.67;;;2.63;;
16577;SDS011;8401;52.528;13.340;2023-07-31T08:12:03;5.30;;;2.80;;
16577;SDS011;8401;52.528;13.340;2023-07-31T08:14:29;5.60;;;2.53;;
16577;SDS011;8401;52.528;13.340;2023-07-31T08:16:55;3.47;;;2.63;;
16577;SDS011;8401;52.528;13.340;2023-07-31T08:19:21;3.10;;;2.20;;
16577;SDS011;8401;52.528;13.340;2023-07-31T08:21:46;4.00;;;2.00;;
16577;SDS011;8401;52.528;13.340;2023-07-31T08:24:12;2.70;;;2.37;;
16577;SDS011;8401;52.528;13.340;2023-07-31T08:26:38;4.23;;;2.47;;
16577;SDS011;8401;52.528;13.340;2023-07-31T08:29:03;2.60;;;2.10;;
16577;SDS011;8401;52.528;13.340;2023-07-31T08:31:29;3.03;;;2.55;;
16577;SDS011;8401;52.528;13.340;2023-07-31T08:33:55;2.40;;;2.20;;
16577;SDS011;8401;52.528;13.340;2023-07-31T08:36:21;2.87;;;2.50;;
16577;SDS011;8401;52.528;13.340;2023-07-31T08:38:47;4.37;;;2.53;;
16577;SDS011;8401;52.528;13.340;2023-07-31T08:41:12;2.70;;;1.87;;
16577;SDS011;8401;52.528;13.340;2023-07-31T08:43:38;3.87;;;2.30;;
16577;SDS011;8401;52.528;13.340;2023-07-31T08:46:04;3.00;;;2.17;;
16577;SDS011;8401;52.528;13.340;2023-07-31T08:48:30;2.67;;;2.00;;
16577;SDS011;8401;52.528;13.340;2023-07-31T08:50:57;2.87;;;1.80;;
16577;SDS011;8401;52.528;13.340;2023-07-31T08:53:22;2.67;;;2.20;;
16577;SDS011;8401;52.528;13.340;2023-07-31T08:55:48;4.57;;;2.27;;
16577;SDS011;8401;52.528;13.340;2023-07-31T08:58:14;3.60;;;2.17;;
16577;SDS011;8401;52.528;13.340;2023-07-31T09:00:42;4.63;;;2.30;;
16577;SDS011;8401;52.528;13.340;2023-07-31T09:03:14;4.38;;;2.10;;
16577;SDS011;8401;52.528;13.340;2023-07-31T09:05:42;4.57;;;2.28;;
16577;SDS011;8401;52.528;13.340;2023-07-31T09:08:10;2.03;;;1.77;;
16577;SDS011;8401;52.528;13.340;2023-07-31T09:10:40;2.17;;;1.87;;
16577;SDS011;8401;52.528;13.340;2023-07-31T09:13:11;3.63;;;2.20;;
16577;SDS011;8401;52.528;13.340;2023-07-31T09:15:37;2.87;;;1.80;;
16577;SDS011;8401;52.528;13.340;2023-07-31T09:18:05;2.03;;;1.77;;
16577;SDS011;8401;52.528;13.340;2023-07-31T09:20:31;5.63;;;2.42;;
16577;SDS011;8401;52.528;13.340;2023-07-31T09:23:05;4.03;;;2.00;;
16577;SDS011;8401;52.528;13.340;2023-07-31T09:25:38;4.82;;;2.45;;
16577;SDS011;8401;52.528;13.340;2023-07-31T09:28:06;2.58;;;2.00;;
16577;SDS011;8401;52.528;13.340;2023-07-31T09:33:17;2.77;;;1.60;;
16577;SDS011;8401;52.528;13.340;2023-07-31T09:35:44;3.83;;;1.67;;
16577;SDS011;8401;52.528;13.340;2023-07-31T09:38:10;4.40;;;2.37;;
16577;SDS011;8401;52.528;13.340;2023-07-31T09:40:44;3.30;;;1.80;;
16577;SDS011;8401;52.528;13.340;2023-07-31T09:43:13;3.83;;;1.57;;
16577;SDS011;8401;52.528;13.340;2023-07-31T09:45:43;3.07;;;2.00;;
16577;SDS011;8401;52.528;13.340;2023-07-31T09:48:10;6.47;;;1.87;;
16577;SDS011;8401;52.528;13.340;2023-07-31T09:50:42;3.30;;;1.70;;
16577;SDS011;8401;52.528;13.340;2023-07-31T09:53:09;1.53;;;1.30;;
16577;SDS011;8401;52.528;13.340;2023-07-31T09:55:35;2.83;;;1.70;;
16577;SDS011;8401;52.528;13.340;2023-07-31T09:58:05;2.08;;;1.63;;
16577;SDS011;8401;52.528;13.340;2023-07-31T10:00:33;1.63;;;1.25;;
16577;SDS011;8401;52.528;13.340;2023-07-31T10:02:59;2.63;;;1.40;;
16577;SDS011;8401;52.528;13.340;2023-07-31T10:05:31;1.95;;;1.42;;
16577;SDS011;8401;52.528;13.340;2023-07-31T10:08:00;3.38;;;1.90;;
16577;SDS011;8401;52.528;13.340;2023-07-31T10:10:26;3.85;;;2.40;;
16577;SDS011;8401;52.528;13.340;2023-07-31T10:12:52;3.33;;;2.10;;
16577;SDS011;8401;52.528;13.340;2023-07-31T10:15:19;3.30;;;2.22;;
16577;SDS011;8401;52.528;13.340;2023-07-31T10:17:47;3.97;;;2.45;;
16577;SDS011;8401;52.528;13.340;2023-07-31T10:20:14;4.78;;;2.92;;
16577;SDS011;8401;52.528;13.340;2023-07-31T10:22:41;4.88;;;3.00;;
16577;SDS011;8401;52.528;13.340;2023-07-31T10:25:11;5.63;;;3.38;;
16577;SDS011;8401;52.528;13.340;2023-07-31T10:27:38;3.55;;;2.70;;
16577;SDS011;8401;52.528;13.340;2023-07-31T10:30:08;4.60;;;2.95;;
16577;SDS011;8401;52.528;13.340;2023-07-31T10:32:41;6.57;;;3.42;;
16577;SDS011;8401;52.528;13.340;2023-07-31T10:35:08;6.25;;;3.58;;
16577;SDS011;8401;52.528;13.340;2023-07-31T10:37:38;5.82;;;3.40;;
16577;SDS011;8401;52.528;13.340;2023-07-31T10:40:09;4.85;;;3.28;;
16577;SDS011;8401;52.528;13.340;2023-07-31T10:45:14;4.95;;;3.22;;
16577;SDS011;8401;52.528;13.340;2023-07-31T10:48:12;4.72;;;3.08;;
16577;SDS011;8401;52.528;13.340;2023-07-31T10:50:46;6.95;;;3.78;;
16577;SDS011;8401;52.528;13.340;2023-07-31T10:53:31;4.95;;;2.83;;
16577;SDS011;8401;52.528;13.340;2023-07-31T10:56:04;7.32;;;2.83;;
16577;SDS011;8401;52.528;13.340;2023-07-31T10:58:34;4.18;;;3.00;;
16577;SDS011;8401;52.528;13.340;2023-07-31T11:01:02;4.95;;;3.40;;
16577;SDS011;8401;52.528;13.340;2023-07-31T11:03:42;5.53;;;3.20;;
16577;SDS011;8401;52.528;13.340;2023-07-31T11:06:13;7.18;;;3.40;;
16577;SDS011;8401;52.528;13.340;2023-07-31T11:08:46;3.80;;;2.95;;
16577;SDS011;8401;52.528;13.340;2023-07-31T11:11:13;4.85;;;3.08;;
16577;SDS011;8401;52.528;13.340;2023-07-31T11:16:06;4.90;;;2.90;;
16577;SDS011;8401;52.528;13.340;2023-07-31T11:18:34;8.18;;;2.80;;
16577;SDS011;8401;52.528;13.340;2023-07-31T11:21:00;5.25;;;3.22;;
16577;SDS011;8401;52.528;13.340;2023-07-31T11:23:25;4.75;;;3.20;;
16577;SDS011;8401;52.528;13.340;2023-07-31T11:25:51;4.43;;;2.88;;
16577;SDS011;8401;52.528;13.340;2023-07-31T11:28:17;5.32;;;3.30;;
16577;SDS011;8401;52.528;13.340;2023-07-31T11:30:44;6.07;;;3.40;;
16577;SDS011;8401;52.528;13.340;2023-07-31T11:33:11;4.15;;;3.28;;
16577;SDS011;8401;52.528;13.340;2023-07-31T11:35:47;5.93;;;2.95;;
16577;SDS011;8401;52.528;13.340;2023-07-31T11:38:21;5.80;;;3.10;;
16577;SDS011;8401;52.528;13.340;2023-07-31T11:40:55;5.25;;;2.92;;
16577;SDS011;8401;52.528;13.340;2023-07-31T11:43:30;4.57;;;3.10;;
16577;SDS011;8401;52.528;13.340;2023-07-31T11:45:57;3.72;;;2.95;;
16577;SDS011;8401;52.528;13.340;2023-07-31T11:48:25;5.38;;;3.15;;
16577;SDS011;8401;52.528;13.340;2023-07-31T11:50:58;5.13;;;3.05;;
16577;SDS011;8401;52.528;13.340;2023-07-31T11:53:29;6.25;;;3.08;;
16577;SDS011;8401;52.528;13.340;2023-07-31T11:56:06;5.53;;;2.95;;
16577;SDS011;8401;52.528;13.340;2023-07-31T11:58:34;4.10;;;2.85;;
16577;SDS011;8401;52.528;13.340;2023-07-31T12:01:00;5.00;;;3.15;;
16577;SDS011;8401;52.528;13.340;2023-07-31T12:03:27;4.97;;;2.90;;
16577;SDS011;8401;52.528;13.340;2023-07-31T12:05:54;6.75;;;2.50;;
16577;SDS011;8401;52.528;13.340;2023-07-31T12:08:23;3.65;;;2.53;;
16577;SDS011;8401;52.528;13.340;2023-07-31T12:10:53;3.90;;;3.00;;
16577;SDS011;8401;52.528;13.340;2023-07-31T12:13:23;5.13;;;3.25;;
16577;SDS011;8401;52.528;13.340;2023-07-31T12:15:54;4.47;;;2.70;;
16577;SDS011;8401;52.528;13.340;2023-07-31T12:18:22;6.20;;;3.33;;
16577;SDS011;8401;52.528;13.340;2023-07-31T12:20:53;4.57;;;2.85;;
16577;SDS011;8401;52.528;13.340;2023-07-31T12:23:21;4.10;;;2.83;;
16577;SDS011;8401;52.528;13.340;2023-07-31T12:28:37;3.35;;;2.65;;
16577;SDS011;8401;52.528;13.340;2023-07-31T12:31:21;4.45;;;2.80;;
16577;SDS011;8401;52.528;13.340;2023-07-31T12:33:49;4.03;;;2.60;;
16577;SDS011;8401;52.528;13.340;2023-07-31T12:36:16;3.30;;;2.63;;
16577;SDS011;8401;52.528;13.340;2023-07-31T12:38:45;4.43;;;3.10;;
16577;SDS011;8401;52.528;13.340;2023-07-31T12:41:11;4.60;;;3.13;;
16577;SDS011;8401;52.528;13.340;2023-07-31T12:43:38;5.20;;;2.42;;
16577;SDS011;8401;52.528;13.340;2023-07-31T12:46:04;3.85;;;2.60;;
16577;SDS011;8401;52.528;13.340;2023-07-31T12:48:31;5.20;;;3.03;;
16577;SDS011;8401;52.528;13.340;2023-07-31T12:50:57;3.65;;;2.60;;
16577;SDS011;8401;52.528;13.340;2023-07-31T12:53:23;4.10;;;2.80;;
16577;SDS011;8401;52.528;13.340;2023-07-31T12:55:48;4.50;;;2.30;;
16577;SDS011;8401;52.528;13.340;2023-07-31T12:58:15;3.63;;;2.60;;
16577;SDS011;8401;52.528;13.340;2023-07-31T13:00:40;3.22;;;2.28;;
16577;SDS011;8401;52.528;13.340;2023-07-31T13:03:06;2.90;;;1.90;;
16577;SDS011;8401;52.528;13.340;2023-07-31T13:05:32;2.70;;;1.83;;
16577;SDS011;8401;52.528;13.340;2023-07-31T13:07:57;3.92;;;2.00;;
16577;SDS011;8401;52.528;13.340;2023-07-31T13:10:23;3.33;;;1.83;;
16577;SDS011;8401;52.528;13.340;2023-07-31T13:12:50;2.55;;;1.88;;
16577;SDS011;8401;52.528;13.340;2023-07-31T13:15:16;2.75;;;1.85;;
16577;SDS011;8401;52.528;13.340;2023-07-31T13:17:41;3.95;;;2.10;;
16577;SDS011;8401;52.528;13.340;2023-07-31T13:20:07;1.77;;;1.60;;
16577;SDS011;8401;52.528;13.340;2023-07-31T13:22:33;3.17;;;2.10;;
16577;SDS011;8401;52.528;13.340;2023-07-31T13:24:58;3.40;;;2.30;;
16577;SDS011;8401;52.528;13.340;2023-07-31T13:27:24;2.25;;;1.80;;
16577;SDS011;8401;52.528;13.340;2023-07-31T13:29:50;5.07;;;1.83;;
16577;SDS011;8401;52.528;13.340;2023-07-31T13:32:17;4.10;;;1.95;;
16577;SDS011;8401;52.528;13.340;2023-07-31T13:34:44;2.88;;;2.20;;
16577;SDS011;8401;52.528;13.340;2023-07-31T13:37:11;3.40;;;2.15;;
16577;SDS011;8401;52.528;13.340;2023-07-31T13:39:37;3.20;;;2.25;;
16577;SDS011;8401;52.528;13.340;2023-07-31T13:42:02;5.35;;;2.72;;
16577;SDS011;8401;52.528;13.340;2023-07-31T13:44:31;3.17;;;2.10;;
16577;SDS011;8401;52.528;13.340;2023-07-31T13:46:57;3.45;;;2.30;;
16577;SDS011;8401;52.528;13.340;2023-07-31T13:49:22;2.95;;;2.35;;
16577;SDS011;8401;52.528;13.340;2023-07-31T13:51:48;5.43;;;2.47;;
16577;SDS011;8401;52.528;13.340;2023-07-31T13:54:14;3.15;;;2.58;;
16577;SDS011;8401;52.528;13.340;2023-07-31T13:56:40;6.07;;;2.80;;
16577;SDS011;8401;52.528;13.340;2023-07-31T13:59:06;4.57;;;2.53;;
16577;SDS011;8401;52.528;13.340;2023-07-31T14:01:32;6.28;;;3.08;;
16577;SDS011;8401;52.528;13.340;2023-07-31T14:03:57;4.38;;;2.72;;
16577;SDS011;8401;52.528;13.340;2023-07-31T14:06:23;3.80;;;2.25;;
16577;SDS011;8401;52.528;13.340;2023-07-31T14:08:49;3.17;;;2.70;;
16577;SDS011;8401;52.528;13.340;2023-07-31T14:11:14;4.60;;;2.47;;
16577;SDS011;8401;52.528;13.340;2023-07-31T14:13:40;5.47;;;2.80;;
16577;SDS011;8401;52.528;13.340;2023-07-31T14:16:06;3.85;;;2.63;;
16577;SDS011;8401;52.528;13.340;2023-07-31T14:18:31;4.32;;;2.33;;
16577;SDS011;8401;52.528;13.340;2023-07-31T14:20:57;4.97;;;2.90;;
16577;SDS011;8401;52.528;13.340;2023-07-31T14:23:23;6.05;;;2.47;;
16577;SDS011;8401;52.528;13.340;2023-07-31T14:25:48;3.53;;;2.75;;
16577;SDS011;8401;52.528;13.340;2023-07-31T14:28:14;5.55;;;3.20;;
16577;SDS011;8401;52.528;13.340;2023-07-31T14:30:39;4.95;;;2.97;;
16577;SDS011;8401;52.528;13.340;2023-07-31T14:33:05;4.85;;;3.08;;
16577;SDS011;8401;52.528;13.340;2023-07-31T14:35:31;3.35;;;2.60;;
16577;SDS011;8401;52.528;13.340;2023-07-31T14:37:57;3.63;;;2.60;;
16577;SDS011;8401;52.528;13.340;2023-07-31T14:40:23;4.60;;;3.08;;
16577;SDS011;8401;52.528;13.340;2023-07-31T14:42:48;5.93;;;2.47;;
16577;SDS011;8401;52.528;13.340;2023-07-31T14:45:14;4.05;;;2.80;;
16577;SDS011;8401;52.528;13.340;2023-07-31T14:47:39;4.10;;;2.65;;
16577;SDS011;8401;52.528;13.340;2023-07-31T14:50:05;5.18;;;2.80;;
16577;SDS011;8401;52.528;13.340;2023-07-31T14:52:31;5.03;;;3.00;;
16577;SDS011;8401;52.528;13.340;2023-07-31T14:54:57;3.28;;;2.60;;
16577;SDS011;8401;52.528;13.340;2023-07-31T14:57:23;3.55;;;2.63;;
16577;SDS011;8401;52.528;13.340;2023-07-31T14:59:48;4.53;;;3.20;;
16577;SDS011;8401;52.528;13.340;2023-07-31T15:02:14;3.75;;;2.53;;